createdAt,value
2019-05-26T00:00:35.255Z,8.31
2019-05-26T00:05:42.920Z,8.46
2019-05-26T00:10:50.640Z,9.18
2019-05-26T00:15:59.291Z,8.87
2019-05-26T00:21:07.059Z,9.43
2019-05-26T00:26:14.738Z,9.27
2019-05-26T00:31:22.488Z,9.40
2019-05-26T00:36:31.520Z,8.98
2019-05-26T00:41:40.598Z,9.44
2019-05-26T00:46:48.476Z,8.83
2019-05-26T00:51:56.259Z,10.81
2019-05-26T00:57:05.018Z,9.77
2019-05-26T01:02:12.753Z,10.25
2019-05-26T01:07:21.566Z,13.08
2019-05-26T01:12:29.662Z,10.59
2019-05-26T01:17:37.379Z,9.53
2019-05-26T01:22:45.150Z,11.38
2019-05-26T01:27:53.212Z,11.02
2019-05-26T01:33:01.895Z,12.25
2019-05-26T01:38:23.407Z,13.20
2019-05-26T01:43:16.849Z,11.98
2019-05-26T01:48:24.496Z,12.29
2019-05-26T01:53:32.552Z,14.96
2019-05-26T01:58:40.192Z,10.22
2019-05-26T02:03:47.872Z,10.86
2019-05-26T02:08:58.154Z,10.88
2019-05-26T02:13:55.820Z,13.91
2019-05-26T02:19:03.561Z,11.47
2019-05-26T02:24:11.709Z,12.58
2019-05-26T02:29:19.338Z,13.48
2019-05-26T02:34:26.833Z,15.33
2019-05-26T02:39:34.478Z,14.00
2019-05-26T02:44:42.742Z,10.78
2019-05-26T02:49:52.079Z,11.70
2019-05-26T02:54:59.775Z,12.93
2019-05-26T03:00:07.485Z,13.10
2019-05-26T03:05:15.180Z,16.22
2019-05-26T03:10:22.830Z,14.60
2019-05-26T03:15:30.510Z,13.06
2019-05-26T03:20:38.256Z,15.11
2019-05-26T03:25:46.070Z,13.09
2019-05-26T03:30:53.967Z,14.85
2019-05-26T03:36:01.719Z,13.11
2019-05-26T03:41:09.656Z,16.15
2019-05-26T03:46:17.376Z,12.77
2019-05-26T03:51:25.035Z,14.21
2019-05-26T03:56:32.846Z,13.03
2019-05-26T04:01:40.473Z,11.64
2019-05-26T04:06:48.270Z,11.46
2019-05-26T04:11:54.333Z,12.00
2019-05-26T04:17:01.966Z,11.46
2019-05-26T04:22:09.609Z,11.99
2019-05-26T04:27:17.639Z,11.35
2019-05-26T04:32:25.374Z,11.45
2019-05-26T04:37:33.027Z,14.00
2019-05-26T04:42:40.682Z,12.09
2019-05-26T04:47:48.354Z,9.98
2019-05-26T04:53:06.166Z,11.17
2019-05-26T04:58:03.220Z,12.25
2019-05-26T05:03:11.103Z,12.93
2019-05-26T05:08:19.001Z,11.95
2019-05-26T05:13:26.800Z,10.85
2019-05-26T05:18:34.458Z,13.51
2019-05-26T05:23:42.081Z,15.89
2019-05-26T05:28:49.737Z,15.83
2019-05-26T05:33:57.521Z,18.23
2019-05-26T05:39:05.291Z,15.48
2019-05-26T05:44:13.076Z,16.98
2019-05-26T05:49:20.727Z,18.10
2019-05-26T05:54:28.437Z,19.10
2019-05-26T05:59:36.205Z,17.39
2019-05-26T06:04:43.970Z,20.80
2019-05-26T06:09:51.624Z,17.09
2019-05-26T06:14:59.652Z,19.14
2019-05-26T06:20:07.315Z,18.13
2019-05-26T06:25:14.975Z,17.63
2019-05-26T06:30:22.701Z,21.86
2019-05-26T06:35:32.620Z,19.73
2019-05-26T06:40:37.793Z,17.55
2019-05-26T06:45:45.624Z,19.52
2019-05-26T06:50:53.494Z,20.38
2019-05-26T06:56:01.188Z,15.96
2019-05-26T07:01:09.018Z,18.04
2019-05-26T07:06:16.863Z,19.35
2019-05-26T07:11:24.797Z,15.14
2019-05-26T07:16:38.133Z,16.73
2019-05-26T07:21:39.614Z,13.68
2019-05-26T07:26:47.237Z,15.49
2019-05-26T07:31:54.924Z,16.14
2019-05-26T07:37:02.548Z,15.59
2019-05-26T07:42:11.163Z,17.37
2019-05-26T07:47:17.561Z,17.37
2019-05-26T07:52:25.306Z,16.09
2019-05-26T07:57:32.902Z,17.65
2019-05-26T08:02:40.749Z,17.47
2019-05-26T08:07:48.445Z,18.72
2019-05-26T08:12:56.305Z,18.35
2019-05-26T08:18:03.930Z,15.84
2019-05-26T08:23:11.757Z,19.32
2019-05-26T08:28:19.402Z,16.79
2019-05-26T08:33:27.143Z,19.58
2019-05-26T08:38:34.979Z,19.68
2019-05-26T08:43:42.761Z,18.11
2019-05-26T08:48:51.502Z,18.78
2019-05-26T08:53:59.271Z,17.95
2019-05-26T08:59:06.968Z,19.59
2019-05-26T09:04:14.648Z,17.29
2019-05-26T09:09:22.317Z,18.87
2019-05-26T09:14:30.052Z,25.12
2019-05-26T09:19:37.768Z,37.62
2019-05-26T09:24:45.393Z,32.61
2019-05-26T09:29:54.046Z,21.63
2019-05-26T09:35:31.431Z,48.08
2019-05-26T09:40:39.017Z,22.75
2019-05-26T09:45:46.718Z,19.66
2019-05-26T09:50:54.440Z,33.61
2019-05-26T09:56:02.241Z,17.67
2019-05-26T10:01:10.322Z,21.57
2019-05-26T10:06:18.251Z,19.11
2019-05-26T10:11:26.338Z,35.83
2019-05-26T10:16:33.929Z,19.75
2019-05-26T10:21:41.649Z,14.84
2019-05-26T10:26:49.404Z,22.01
2019-05-26T10:31:57.102Z,17.51
2019-05-26T10:37:04.865Z,20.34
2019-05-26T10:42:12.533Z,26.12
2019-05-26T10:47:20.266Z,24.41
2019-05-26T10:52:27.896Z,19.78
2019-05-26T10:57:36.044Z,20.88
2019-05-26T11:02:44.828Z,43.38
2019-05-26T11:07:52.594Z,19.69
2019-05-26T11:13:00.212Z,14.65
2019-05-26T11:18:07.911Z,12.85
2019-05-26T11:23:16.529Z,18.69
2019-05-26T11:28:24.262Z,26.70
2019-05-26T11:33:31.894Z,34.55
2019-05-26T11:38:39.694Z,16.62
2019-05-26T11:43:47.424Z,18.99
2019-05-26T11:48:55.184Z,20.39
2019-05-26T11:54:02.793Z,14.29
2019-05-26T11:59:10.510Z,26.29
2019-05-26T12:04:18.127Z,15.45
2019-05-26T12:09:25.864Z,15.02
2019-05-26T12:14:35.235Z,17.69
2019-05-26T12:19:40.837Z,36.39
2019-05-26T12:24:48.514Z,16.32
2019-05-26T12:29:56.252Z,11.12
2019-05-26T12:35:03.886Z,20.45
2019-05-26T12:40:11.518Z,15.17
2019-05-26T12:45:19.295Z,17.11
2019-05-26T12:50:26.952Z,11.50
2019-05-26T12:55:34.671Z,9.21
2019-05-26T13:00:48.674Z,7.91
2019-05-26T13:05:50.462Z,8.62
2019-05-26T13:10:58.309Z,10.13
2019-05-26T13:16:06.030Z,7.34
2019-05-26T13:21:13.962Z,10.01
2019-05-26T13:26:21.691Z,7.59
2019-05-26T13:31:29.394Z,8.47
2019-05-26T13:36:37.109Z,9.52
2019-05-26T13:41:44.963Z,9.76
2019-05-26T13:46:52.598Z,11.26
2019-05-26T13:52:00.359Z,14.86
2019-05-26T13:57:08.091Z,47.74
2019-05-26T14:02:15.848Z,20.57
2019-05-26T14:07:23.641Z,16.14
2019-05-26T14:12:31.382Z,11.32
2019-05-26T14:17:39.035Z,9.93
2019-05-26T14:22:46.804Z,7.05
2019-05-26T14:27:54.466Z,17.12
2019-05-26T14:33:02.289Z,14.94
2019-05-26T14:38:09.930Z,10.72
2019-05-26T14:43:17.758Z,10.11
2019-05-26T14:48:25.678Z,7.95
2019-05-26T14:53:34.406Z,8.25
2019-05-26T14:58:42.041Z,9.55
2019-05-26T15:03:49.806Z,9.53
2019-05-26T15:08:57.581Z,20.49
2019-05-26T15:14:05.360Z,11.68
2019-05-26T15:19:13.165Z,9.89
2019-05-26T15:24:20.921Z,10.51
2019-05-26T15:29:28.645Z,11.77
2019-05-26T15:34:36.606Z,7.96
2019-05-26T15:39:44.293Z,10.42
2019-05-26T15:44:52.114Z,7.65
2019-05-26T15:49:59.899Z,6.94
2019-05-26T15:55:07.676Z,6.63
2019-05-26T16:00:15.366Z,4.35
2019-05-26T16:05:23.208Z,3.65
2019-05-26T16:10:30.860Z,5.08
2019-05-26T16:15:38.571Z,3.87
2019-05-26T16:20:46.632Z,6.86
2019-05-26T16:25:54.884Z,5.08
2019-05-26T16:31:02.559Z,6.32
2019-05-26T16:36:10.306Z,6.18
2019-05-26T16:41:18.003Z,5.77
2019-05-26T16:46:25.829Z,4.42
2019-05-26T16:51:33.513Z,5.75
2019-05-26T16:56:41.458Z,6.10
2019-05-26T17:01:49.042Z,6.18
2019-05-26T17:06:56.971Z,4.56
2019-05-26T17:12:04.565Z,3.31
2019-05-26T17:17:15.065Z,4.03
2019-05-26T17:22:19.678Z,4.83
2019-05-26T17:27:29.933Z,2.84
2019-05-26T17:32:27.592Z,2.53
2019-05-26T17:37:35.378Z,2.97
2019-05-26T17:42:43.097Z,3.98
2019-05-26T17:47:50.739Z,5.69
2019-05-26T17:52:58.462Z,5.91
2019-05-26T17:58:06.314Z,6.98
2019-05-26T18:03:13.991Z,6.02
2019-05-26T18:08:21.694Z,8.62
2019-05-26T18:13:29.577Z,7.66
2019-05-26T18:18:37.577Z,10.07
2019-05-26T18:23:45.338Z,10.00
2019-05-26T18:28:53.086Z,8.55
2019-05-26T18:34:00.677Z,9.35
2019-05-26T18:39:08.409Z,8.10
2019-05-26T18:44:16.052Z,8.28
2019-05-26T18:49:23.906Z,6.28
2019-05-26T18:54:31.710Z,7.96
2019-05-26T18:59:39.445Z,7.43
2019-05-26T19:04:47.098Z,6.54
2019-05-26T19:09:54.945Z,6.79
2019-05-26T19:15:02.699Z,6.66
2019-05-26T19:20:16.053Z,5.76
2019-05-26T19:25:17.922Z,5.57
2019-05-26T19:30:26.511Z,6.65
2019-05-26T19:35:34.246Z,6.61
2019-05-26T19:40:41.966Z,5.94
2019-05-26T19:45:49.616Z,4.79
2019-05-26T19:50:57.356Z,6.19
2019-05-26T19:56:05.178Z,6.42
2019-05-26T20:01:13.026Z,5.47
2019-05-26T20:06:20.811Z,6.54
2019-05-26T20:11:29.030Z,4.74
2019-05-26T20:16:37.842Z,6.49
2019-05-26T20:21:45.696Z,11.08
2019-05-26T20:26:53.721Z,6.69
2019-05-26T20:32:01.465Z,10.24
2019-05-26T20:37:09.159Z,4.46
2019-05-26T20:42:17.102Z,10.42
2019-05-26T20:47:24.920Z,7.06
2019-05-26T20:52:32.836Z,7.13
2019-05-26T20:57:40.620Z,6.42
2019-05-26T21:02:49.409Z,9.68
2019-05-26T21:07:57.137Z,6.28
2019-05-26T21:13:04.833Z,7.89
2019-05-26T21:18:12.520Z,11.52
2019-05-26T21:23:22.686Z,6.98
2019-05-26T21:28:27.696Z,7.44
2019-05-26T21:33:35.770Z,7.07
2019-05-26T21:38:43.650Z,8.89
2019-05-26T21:43:51.469Z,7.94
2019-05-26T21:48:59.532Z,7.92
2019-05-26T21:54:06.898Z,7.10
2019-05-26T21:59:14.688Z,6.61
2019-05-26T22:04:22.498Z,9.16
2019-05-26T22:09:30.106Z,7.01
2019-05-26T22:14:38.915Z,8.02
2019-05-26T22:19:46.701Z,7.55
2019-05-26T22:24:54.355Z,7.88
2019-05-26T22:30:02.203Z,6.39
2019-05-26T22:35:09.889Z,6.97
2019-05-26T22:40:18.585Z,6.30
2019-05-26T22:45:26.198Z,8.91
2019-05-26T22:50:33.930Z,5.42
2019-05-26T22:55:41.649Z,4.07
2019-05-26T23:00:49.506Z,8.52
2019-05-26T23:05:57.143Z,3.88
2019-05-26T23:11:04.864Z,3.78
2019-05-26T23:16:12.586Z,3.66
2019-05-26T23:21:20.438Z,3.64
2019-05-26T23:26:28.201Z,3.55
2019-05-26T23:31:35.957Z,3.23
2019-05-26T23:36:43.607Z,3.41
2019-05-26T23:41:51.388Z,2.95
2019-05-26T23:46:59.129Z,3.67
2019-05-26T23:52:08.023Z,3.33
2019-05-26T23:57:15.628Z,3.35
